Ausable Chasm, New York
Current Conditions -  °F | °C
As of 5:53 AM on Wednesday 26 Nov 2014 (Local Time) from KPBG Reporting Station
Overcast Overcast  
Wind Chill:   Ceiling: 4300
Heat Index:   Visibility: 10mi
Dew Point: -5°   Wind: 3mph
Humidity: 64%   Direction: 300°WNW
Pressure: 30.21"   Gusts: NA
Location:  44.5125°N, 73.5235°W
Report Text: KPBG 261053Z AUTO 30003KT 10SM OVC043 01/M05 A3021 RMK AO2 SLP233 T00111050
Loading
Personal Weather Stations






























Interactive Weather Map New forecast layout! Learn more

10-Day Weather Forecast

Advertisements
Track Severe Weather on mobile